Storden, MN (56174)

6:32 PM CDT on July 06, 2015 (GMT -0500)
Sorenson Seed | | Change Station
CLOSE
Current Station
Personal Weather Station
Location: Storden, MN
Elevation: 1404 ft
Nearby Weather Stations

Elev 1404 ft 44.04 °N, 95.33 °W | Updated 2 minutes ago

Partly Cloudy
Partly Cloudy
67.8 °F
Feels Like 67.8 °F
N
18.0
Wind Variable Wind from NNW
Gusts 18.0 mph

Today
High -- | Low -- °F
--% Chance of Precip.
Yesterday
High -- | Low -- °F
Precip. -- in
5:45 AM 9:06 PM
Waning Gibbous, 71% visible
Pressure 30.01 in
Visibility 7.0 miles
Clouds Scattered Clouds 3800 ft
Dew Point 56 °F
Humidity 66%
Rainfall 2.58 in
Snow Depth Not available.
UV 2 out of 12
Pollen .60 out of 12
Air Quality Not available.
Flu Activity Not available.
METAR KMWM 062314Z AUTO 33019G24KT 7SM SCT038 22/14 A3001 RMK AO2

More Conditions Fewer Conditions

Pressure 30.01 in
Visibility 7.0 miles
Clouds Scattered Clouds 3800 ft
Dew Point 56 °F
Humidity 66%
Rainfall 2.58 in
Snow Depth Not available.
UV 2 out of 12
Pollen .60 out of 12
Air Quality Not available.
Flu Activity Not available.
METAR KMWM 062314Z AUTO 33019G24KT 7SM SCT038 22/14 A3001 RMK AO2

More Conditions Fewer Conditions

10-Day Weather Forecast

×

Almanac

Astronomy

Jul. 06, 2015 Rise Set
Actual Time
Civil Twilight
Nautical Twilight
Astronomical Twilight
Moon
Length of Visible Light
Length of Day
Tomorrow will be .
, % of the Moon is Illuminated

Today's Extremes

State Highs State Lows

Community

WunderPhotos

Upload Photos

1,835,688 photos uploaded!

WunderBlogs® & News

Nearby

Air Quality

  Air Quality AQ Index Pollutant
Not available.

Snow Depth

Station Depth Elevation

Earthquake Activity

City Distance Mag. Time & Date
Minimum magnitude displayed is 2.5.

Coastal Water Temperatures

Place Temperature

Stations

Nearby Weather Stations

Station Location Temp. Windchill Dew Point Humidity Wind Precip. Elev Updated Type